Norwegian Jade — C6WK7 — position and weather

sailwx.info

Track history (hours):
 
Tides and Currents Weather Stations Pressure Air Temp Water Temp Dewpoint Dewpoint Depression Visibility Wind Speed Wind Dir Waves Ship Positions

Norwegian Jade

Last reported at 2017-Sep-26 03:40 UTC. Time now 2017-Sep-26 05:47 UTC.
Position N 52°01' E 002°40'.

Length 294 m; draft 8.6 m.

Type: Passenger vessel. MMSI: 308416000.

Date/timePositionNaut miles runAvg speedWind from/ knotsBaromVisibWave heightAir tempDewpointWater temp
2017-Sep-26 03:40N 52°01' E 002°40'421.9
2017-Sep-26 03:29N 51°57' E 002°39'1021.4
2017-Sep-26 03:00N 51°47' E 002°35'1121.5
2017-Sep-26 02:30N 51°39' E 002°25'1121.3
2017-Sep-26 02:00N 51°30' E 002°15'1020.6
2017-Sep-26 01:30N 51°21' E 002°07'1019.5
2017-Sep-26 01:00N 51°13' E 001°59'1120.4
2017-Sep-26 00:29N 51°07' E 001°45'1020.1
2017-Sep-26 00:00N 51°01' E 001°33'1019.2
2017-Sep-25 23:30N 50°53' E 001°24'1019.3
2017-Sep-25 23:00N 50°44' E 001°20'1120.1
2017-Sep-25 22:27N 50°36' E 001°07'1120.4
2017-Sep-25 21:56N 50°31' E 000°52'920.7
2017-Sep-25 21:31N 50°28' E 000°39'1020.7
2017-Sep-25 21:00N 50°25' E 000°24'1020.6
2017-Sep-25 20:30N 50°22' E 000°08'1020.4
2017-Sep-25 20:01N 50°22' W 000°08'1020.6
2017-Sep-25 19:31N 50°27' W 000°22'1019.9
2017-Sep-25 19:01N 50°31' W 000°36'1019.7
2017-Sep-25 18:31N 50°36' W 000°49'816.6
2017-Sep-25 18:00N 50°42' W 000°59'816.5
2017-Sep-25 17:31N 50°46' W 001°11'510.6
2017-Sep-25 17:00N 50°49' W 001°17'612.1
2017-Sep-25 16:31N 50°53' W 001°24'1 2.0
2017-Sep-25 16:00N 50°54' W 001°25'0 0.0
2017-Sep-25 15:30N 50°54' W 001°25'0 0.0
2017-Sep-25 14:57N 50°54' W 001°25'0 0.0
2017-Sep-25 14:24N 50°54' W 001°25'0 0.0
2017-Sep-25 14:00N 50°54' W 001°25'0 0.0
2017-Sep-25 13:24N 50°54' W 001°25'0 0.0
2017-Sep-25 12:39N 50°54' W 001°25'0 0.0
2017-Sep-25 12:27N 50°54' W 001°25'0 0.0
2017-Sep-25 11:57N 50°54' W 001°25'0 0.0
2017-Sep-25 11:27N 50°54' W 001°25'0 0.0
2017-Sep-25 10:57N 50°54' W 001°25'0 0.0
2017-Sep-25 10:30N 50°54' W 001°25'0 0.0
2017-Sep-25 10:00N 50°54' W 001°25'0 0.0
2017-Sep-25 09:30N 50°54' W 001°25'0 0.0
2017-Sep-25 09:00N 50°54' W 001°25'0 0.0
2017-Sep-25 08:30N 50°54' W 001°25'0 0.0
2017-Sep-25 08:00N 50°54' W 001°25'0 0.0
2017-Sep-25 07:27N 50°54' W 001°25'0 0.0
2017-Sep-25 07:00N 50°54' W 001°25'0 0.0
2017-Sep-25 06:30N 50°54' W 001°25'0 0.0
2017-Sep-25 06:00N 50°54' W 001°25'0 0.3
2017-Sep-25 05:30N 50°54' W 001°25'3 6.9
2017-Sep-25 05:00N 50°51' W 001°21'4 7.9
2017-Sep-25 04:30N 50°48' W 001°18'4 8.8
2017-Sep-25 04:01N 50°46' W 001°12'1020.0
2017-Sep-25 03:31N 50°42' W 000°58'4 8.0
2017-Sep-25 03:00N 50°38' W 000°54'5 9.2
2017-Sep-25 02:30N 50°35' W 000°48'611.9
2017-Sep-25 02:01N 50°33' W 000°39'714.1
2017-Sep-25 01:31N 50°33' W 000°28'713.5
2017-Sep-25 01:00N 50°32' W 000°18'713.6
2017-Sep-25 00:30N 50°31' W 000°07'714.4
2017-Sep-25 00:00N 50°32' E 000°04'714.4
2017-Sep-24 23:30N 50°34' E 000°15'714.2
2017-Sep-24 23:00N 50°36' E 000°25'714.1
2017-Sep-24 22:30N 50°39' E 000°36'714.0
2017-Sep-24 22:01N 50°43' E 000°45'714.1
2017-Sep-24 21:31N 50°46' E 000°55'714.1
2017-Sep-24 21:01N 50°49' E 001°05'714.4
2017-Sep-24 20:31N 50°53' E 001°14'714.9
2017-Sep-24 20:01N 50°58' E 001°23'714.6
2017-Sep-24 19:31N 51°04' E 001°30'714.2
2017-Sep-24 19:01N 51°09' E 001°38'714.1
2017-Sep-24 18:30N 51°14' E 001°46'714.9
2017-Sep-24 18:00N 51°20' E 001°52'714.8
2017-Sep-24 17:30N 51°27' E 001°57'714.6
2017-Sep-24 17:00N 51°33' E 002°05'714.5
2017-Sep-24 16:30N 51°39' E 002°12'714.6
2017-Sep-24 16:01N 51°44' E 002°20'714.4
2017-Sep-24 15:30N 51°49' E 002°28'815.3
2017-Sep-24 15:00N 51°56' E 002°34'816.0
2017-Sep-24 14:30N 52°04' E 002°36'713.6
2017-Sep-24 14:00N 52°10' E 002°38'714.2
2017-Sep-24 13:31N 52°17' E 002°38'814.3
2017-Sep-24 12:59N 52°25' E 002°38'714.2
2017-Sep-24 12:30N 52°32' E 002°38'1314.2
2017-Sep-24 11:35N 52°45' E 002°38'214.2
2017-Sep-24 11:28N 52°46' E 002°38'715.2
2017-Sep-24 11:00N 52°53' E 002°39'1418.7
2017-Sep-24 10:15N 53°07' E 002°39'9816.7
2017-Sep-24 04:21N 54°25' E 000°57'617.8
2017-Sep-24 04:01N 54°29' E 000°50'917.8
2017-Sep-24 03:31N 54°35' E 000°39'917.6
2017-Sep-24 03:01N 54°41' E 000°27'917.3
2017-Sep-24 02:31N 54°47' E 000°17'816.9
2017-Sep-24 02:01N 54°53' E 000°06'816.8
2017-Sep-24 01:31N 54°59' W 000°05'816.8
2017-Sep-24 01:01N 55°05' W 000°15'1516.5
2017-Sep-24 00:06N 55°15' W 000°35'216.5
2017-Sep-24 00:00N 55°16' W 000°37'816.3
2017-Sep-23 23:30N 55°21' W 000°47'816.0
2017-Sep-23 23:00N 55°27' W 000°58'815.9
2017-Sep-23 22:30N 55°32' W 001°08'816.0
2017-Sep-23 22:00N 55°38' W 001°18'1216.0
2017-Sep-23 21:17N 55°46' W 001°33'516.2
2017-Sep-23 21:00N 55°49' W 001°39'816.4
2017-Sep-23 20:31N 55°54' W 001°49'816.8
2017-Sep-23 20:01N 56°00' W 002°00'118 4.2
2017-Sep-22 16:00N 57°36' W 004°06'69 4.0 160 / 111015.110.8 14.2 14.0
2017-Sep-21 22:48N 58°26' W 002°37'310.2
2017-Sep-21 22:29N 58°29' W 002°35'510.2
2017-Sep-21 22:00N 58°34' W 002°32'510.1
2017-Sep-21 21:30N 58°38' W 002°29'10 9.8
2017-Sep-21 20:31N 58°48' W 002°27'410.2
2017-Sep-21 20:07N 58°52' W 002°29'210.1
2017-Sep-21 19:57N 58°54' W 002°30'5 9.9
2017-Sep-21 19:29N 58°58' W 002°34'5 9.9
2017-Sep-21 19:00N 58°59' W 002°42'5 9.2
2017-Sep-21 18:30N 59°01' W 002°51'4 7.7
2017-Sep-21 18:00N 59°00' W 002°58'0 0.2
2017-Sep-21 17:28N 59°00' W 002°59'0 0.0
2017-Sep-21 16:58N 59°00' W 002°59'0 0.0
2017-Sep-21 16:28N 59°00' W 002°59'0 0.0
2017-Sep-21 15:58N 59°00' W 002°59'0 0.0
2017-Sep-21 15:28N 59°00' W 002°59'0 0.0
2017-Sep-21 14:58N 59°00' W 002°59'0 0.0
2017-Sep-21 14:28N 59°00' W 002°59'0 0.0
2017-Sep-21 13:58N 59°00' W 002°59'0 0.0
2017-Sep-21 13:28N 59°00' W 002°59'0 0.0
2017-Sep-21 12:58N 59°00' W 002°59'0 0.0
2017-Sep-21 12:28N 59°00' W 002°59'0 0.0
2017-Sep-21 11:58N 59°00' W 002°59'0 0.0
2017-Sep-21 11:28N 59°00' W 002°59'0 0.0
2017-Sep-21 10:58N 59°00' W 002°59'0 0.0
2017-Sep-21 10:28N 59°00' W 002°59'0 0.0
2017-Sep-21 09:58N 59°00' W 002°59'0 0.0
2017-Sep-21 09:28N 59°00' W 002°59'0 0.2
2017-Sep-21 09:00N 59°00' W 002°58'3 6.7
2017-Sep-21 08:31N 59°01' W 002°52'612.8
2017-Sep-21 08:00N 58°60' W 002°40'611.5
2017-Sep-21 07:30N 59°02' W 002°30'21015.5
2017-Sep-20 18:00N 61°30' W 007°30'14821.1 270 / 221009.110.8 10.6 11.0
2017-Sep-20 11:00N 63°36' W 010°18'263 9.4 120 / 371003.1 1.1 9.6 10.0
2017-Sep-19 07:00N 66°12' W 018°36'150 7.1 140 / 91009.1 5.4 11.0 10.0
2017-Sep-18 10:00N 64°06' W 021°48'0 0.0 150 / 151010.1 5.4 12.0 12.0
2017-Sep-17 09:00N 64°06' W 021°48'27013.5 120 / 141014.1 16.0 11.0
2017-Sep-16 13:00N 61°48' W 013°18'   260 / 121020.710.8 11.6 13.0
Track history (hours):
 
Tides and Currents Weather Stations Pressure Air Temp Water Temp Dewpoint Dewpoint Depression Visibility Wind Speed Wind Dir Waves Ship Positions

Norwegian Jade

Last reported at 2017-Sep-26 03:40 UTC. Time now 2017-Sep-26 05:47 UTC.
Position N 52°01' E 002°40'.

Length 294 m; draft 8.6 m.

Type: Passenger vessel. MMSI: 308416000.

Date/timePositionNaut miles runAvg speedWind from/ knotsBaromVisibWave heightAir tempDewpointWater temp
2017-Sep-26 03:40N 52°01' E 002°40'421.9
2017-Sep-26 03:29N 51°57' E 002°39'1021.4
2017-Sep-26 03:00N 51°47' E 002°35'1121.5
2017-Sep-26 02:30N 51°39' E 002°25'1121.3
2017-Sep-26 02:00N 51°30' E 002°15'1020.6
2017-Sep-26 01:30N 51°21' E 002°07'1019.5
2017-Sep-26 01:00N 51°13' E 001°59'1120.4
2017-Sep-26 00:29N 51°07' E 001°45'1020.1
2017-Sep-26 00:00N 51°01' E 001°33'1019.2
2017-Sep-25 23:30N 50°53' E 001°24'1019.3
2017-Sep-25 23:00N 50°44' E 001°20'1120.1
2017-Sep-25 22:27N 50°36' E 001°07'1120.4
2017-Sep-25 21:56N 50°31' E 000°52'920.7
2017-Sep-25 21:31N 50°28' E 000°39'1020.7
2017-Sep-25 21:00N 50°25' E 000°24'1020.6
2017-Sep-25 20:30N 50°22' E 000°08'1020.4
2017-Sep-25 20:01N 50°22' W 000°08'1020.6
2017-Sep-25 19:31N 50°27' W 000°22'1019.9
2017-Sep-25 19:01N 50°31' W 000°36'1019.7
2017-Sep-25 18:31N 50°36' W 000°49'816.6
2017-Sep-25 18:00N 50°42' W 000°59'816.5
2017-Sep-25 17:31N 50°46' W 001°11'510.6
2017-Sep-25 17:00N 50°49' W 001°17'612.1
2017-Sep-25 16:31N 50°53' W 001°24'1 2.0
2017-Sep-25 16:00N 50°54' W 001°25'0 0.0
2017-Sep-25 15:30N 50°54' W 001°25'0 0.0
2017-Sep-25 14:57N 50°54' W 001°25'0 0.0
2017-Sep-25 14:24N 50°54' W 001°25'0 0.0
2017-Sep-25 14:00N 50°54' W 001°25'0 0.0
2017-Sep-25 13:24N 50°54' W 001°25'0 0.0
2017-Sep-25 12:39N 50°54' W 001°25'0 0.0
2017-Sep-25 12:27N 50°54' W 001°25'0 0.0
2017-Sep-25 11:57N 50°54' W 001°25'0 0.0
2017-Sep-25 11:27N 50°54' W 001°25'0 0.0
2017-Sep-25 10:57N 50°54' W 001°25'0 0.0
2017-Sep-25 10:30N 50°54' W 001°25'0 0.0
2017-Sep-25 10:00N 50°54' W 001°25'0 0.0
2017-Sep-25 09:30N 50°54' W 001°25'0 0.0
2017-Sep-25 09:00N 50°54' W 001°25'0 0.0
2017-Sep-25 08:30N 50°54' W 001°25'0 0.0
2017-Sep-25 08:00N 50°54' W 001°25'0 0.0
2017-Sep-25 07:27N 50°54' W 001°25'0 0.0
2017-Sep-25 07:00N 50°54' W 001°25'0 0.0
2017-Sep-25 06:30N 50°54' W 001°25'0 0.0
2017-Sep-25 06:00N 50°54' W 001°25'0 0.3
2017-Sep-25 05:30N 50°54' W 001°25'3 6.9
2017-Sep-25 05:00N 50°51' W 001°21'4 7.9
2017-Sep-25 04:30N 50°48' W 001°18'4 8.8
2017-Sep-25 04:01N 50°46' W 001°12'1020.0
2017-Sep-25 03:31N 50°42' W 000°58'4 8.0
2017-Sep-25 03:00N 50°38' W 000°54'5 9.2
2017-Sep-25 02:30N 50°35' W 000°48'611.9
2017-Sep-25 02:01N 50°33' W 000°39'714.1
2017-Sep-25 01:31N 50°33' W 000°28'713.5
2017-Sep-25 01:00N 50°32' W 000°18'713.6
2017-Sep-25 00:30N 50°31' W 000°07'714.4
2017-Sep-25 00:00N 50°32' E 000°04'714.4
2017-Sep-24 23:30N 50°34' E 000°15'714.2
2017-Sep-24 23:00N 50°36' E 000°25'714.1
2017-Sep-24 22:30N 50°39' E 000°36'714.0
2017-Sep-24 22:01N 50°43' E 000°45'714.1
2017-Sep-24 21:31N 50°46' E 000°55'714.1
2017-Sep-24 21:01N 50°49' E 001°05'714.4
2017-Sep-24 20:31N 50°53' E 001°14'714.9
2017-Sep-24 20:01N 50°58' E 001°23'714.6
2017-Sep-24 19:31N 51°04' E 001°30'714.2
2017-Sep-24 19:01N 51°09' E 001°38'714.1
2017-Sep-24 18:30N 51°14' E 001°46'714.9
2017-Sep-24 18:00N 51°20' E 001°52'714.8
2017-Sep-24 17:30N 51°27' E 001°57'714.6
2017-Sep-24 17:00N 51°33' E 002°05'714.5
2017-Sep-24 16:30N 51°39' E 002°12'714.6
2017-Sep-24 16:01N 51°44' E 002°20'714.4
2017-Sep-24 15:30N 51°49' E 002°28'815.3
2017-Sep-24 15:00N 51°56' E 002°34'816.0
2017-Sep-24 14:30N 52°04' E 002°36'713.6
2017-Sep-24 14:00N 52°10' E 002°38'714.2
2017-Sep-24 13:31N 52°17' E 002°38'814.3
2017-Sep-24 12:59N 52°25' E 002°38'714.2
2017-Sep-24 12:30N 52°32' E 002°38'1314.2
2017-Sep-24 11:35N 52°45' E 002°38'214.2
2017-Sep-24 11:28N 52°46' E 002°38'715.2
2017-Sep-24 11:00N 52°53' E 002°39'1418.7
2017-Sep-24 10:15N 53°07' E 002°39'9816.7
2017-Sep-24 04:21N 54°25' E 000°57'617.8
2017-Sep-24 04:01N 54°29' E 000°50'917.8
2017-Sep-24 03:31N 54°35' E 000°39'917.6
2017-Sep-24 03:01N 54°41' E 000°27'917.3
2017-Sep-24 02:31N 54°47' E 000°17'816.9
2017-Sep-24 02:01N 54°53' E 000°06'816.8
2017-Sep-24 01:31N 54°59' W 000°05'816.8
2017-Sep-24 01:01N 55°05' W 000°15'1516.5
2017-Sep-24 00:06N 55°15' W 000°35'216.5
2017-Sep-24 00:00N 55°16' W 000°37'816.3
2017-Sep-23 23:30N 55°21' W 000°47'816.0
2017-Sep-23 23:00N 55°27' W 000°58'815.9
2017-Sep-23 22:30N 55°32' W 001°08'816.0
2017-Sep-23 22:00N 55°38' W 001°18'1216.0
2017-Sep-23 21:17N 55°46' W 001°33'516.2
2017-Sep-23 21:00N 55°49' W 001°39'816.4
2017-Sep-23 20:31N 55°54' W 001°49'816.8
2017-Sep-23 20:01N 56°00' W 002°00'118 4.2
2017-Sep-22 16:00N 57°36' W 004°06'69 4.0 160 / 111015.110.8 14.2 14.0
2017-Sep-21 22:48N 58°26' W 002°37'310.2
2017-Sep-21 22:29N 58°29' W 002°35'510.2
2017-Sep-21 22:00N 58°34' W 002°32'510.1
2017-Sep-21 21:30N 58°38' W 002°29'10 9.8
2017-Sep-21 20:31N 58°48' W 002°27'410.2
2017-Sep-21 20:07N 58°52' W 002°29'210.1
2017-Sep-21 19:57N 58°54' W 002°30'5 9.9
2017-Sep-21 19:29N 58°58' W 002°34'5 9.9
2017-Sep-21 19:00N 58°59' W 002°42'5 9.2
2017-Sep-21 18:30N 59°01' W 002°51'4 7.7
2017-Sep-21 18:00N 59°00' W 002°58'0 0.2
2017-Sep-21 17:28N 59°00' W 002°59'0 0.0
2017-Sep-21 16:58N 59°00' W 002°59'0 0.0
2017-Sep-21 16:28N 59°00' W 002°59'0 0.0
2017-Sep-21 15:58N 59°00' W 002°59'0 0.0
2017-Sep-21 15:28N 59°00' W 002°59'0 0.0
2017-Sep-21 14:58N 59°00' W 002°59'0 0.0
2017-Sep-21 14:28N 59°00' W 002°59'0 0.0
2017-Sep-21 13:58N 59°00' W 002°59'0 0.0
2017-Sep-21 13:28N 59°00' W 002°59'0 0.0
2017-Sep-21 12:58N 59°00' W 002°59'0 0.0
2017-Sep-21 12:28N 59°00' W 002°59'0 0.0
2017-Sep-21 11:58N 59°00' W 002°59'0 0.0
2017-Sep-21 11:28N 59°00' W 002°59'0 0.0
2017-Sep-21 10:58N 59°00' W 002°59'0 0.0
2017-Sep-21 10:28N 59°00' W 002°59'0 0.0
2017-Sep-21 09:58N 59°00' W 002°59'0 0.0
2017-Sep-21 09:28N 59°00' W 002°59'0 0.2
2017-Sep-21 09:00N 59°00' W 002°58'3 6.7
2017-Sep-21 08:31N 59°01' W 002°52'612.8
2017-Sep-21 08:00N 58°60' W 002°40'611.5
2017-Sep-21 07:30N 59°02' W 002°30'21015.5
2017-Sep-20 18:00N 61°30' W 007°30'14821.1 270 / 221009.110.8 10.6 11.0
2017-Sep-20 11:00N 63°36' W 010°18'263 9.4 120 / 371003.1 1.1 9.6 10.0
2017-Sep-19 07:00N 66°12' W 018°36'150 7.1 140 / 91009.1 5.4 11.0 10.0
2017-Sep-18 10:00N 64°06' W 021°48'0 0.0 150 / 151010.1 5.4 12.0 12.0
2017-Sep-17 09:00N 64°06' W 021°48'27013.5 120 / 141014.1 16.0 11.0
2017-Sep-16 13:00N 61°48' W 013°18'   260 / 121020.710.8 11.6 13.0

Dump ship's entire track history